| time (UTC) | temp C | wind direction | speed KPH | gust KPH | rain 1hr cm | rain 24hr cm | rain mn cm | humidity % | barometer mb |
| 20260502194544 | 16 | 19 | 20.9 | 41.8 | 0.00 | 0.00 | 0.00 | 38 | 1014.0 |
| 20260502193044 | 17 | 11 | 24.1 | 40.2 | 0.00 | 0.00 | 0.00 | 38 | 1014.1 |
| 20260502191541 | 16 | 23 | 17.7 | 51.5 | 0.00 | 0.00 | 0.00 | 41 | 1014.1 |
| 20260502190041 | 15 | 344 | 17.7 | 43.5 | 0.00 | 0.00 | 0.00 | 42 | 1014.2 |
| 20260502184540 | 15 | 350 | 30.6 | 46.7 | 0.00 | 0.00 | 0.00 | 41 | 1014.2 |
| 20260502183040 | 15 | 30 | 33.8 | 45.1 | 0.00 | 0.00 | 0.00 | 40 | 1014.2 |
| 20260502181556 | 16 | 9 | 30.6 | 45.1 | 0.00 | 0.00 | 0.00 | 39 | 1014.1 |
| 20260502163027 | 15 | 350 | 25.7 | 43.5 | 0.00 | 0.00 | 0.00 | 44 | 1013.8 |
| 20260502161527 | 15 | 21 | 29.0 | 41.8 | 0.00 | 0.00 | 0.00 | 42 | 1013.7 |
| 20260502151520 | 13 | 15 | 22.5 | 35.4 | 0.00 | 0.00 | 0.00 | 49 | 1013.3 |
| 20260502130104 | 10 | 355 | 9.7 | 24.1 | 0.00 | 0.00 | 0.00 | 59 | 1013.1 |
| 20260502123057 | 9 | 5 | 11.3 | 22.5 | 0.00 | 0.00 | 0.00 | 59 | 1013.0 |
| 20260502121556 | 8 | 5 | 14.5 | 29.0 | 0.00 | 0.00 | 0.00 | 60 | 1012.9 |
| 20260502114556 | 8 | 331 | 16.1 | 25.7 | 0.00 | 0.00 | 0.00 | 59 | 1012.6 |
| 20260502113053 | 7 | 349 | 11.3 | 17.7 | 0.00 | 0.00 | 0.00 | 61 | 1012.8 |
| 20260502111551 | 8 | 337 | 6.4 | 16.1 | 0.00 | 0.00 | 0.00 | 60 | 1012.7 |
| 20260502110057 | 8 | 332 | 8.0 | 14.5 | 0.00 | 0.00 | 0.00 | 59 | 1012.7 |
| 20260502104550 | 8 | 293 | 6.4 | 12.9 | 0.00 | 0.00 | 0.00 | 59 | 1012.6 |
| 20260502103055 | 8 | 286 | 8.0 | 12.9 | 0.00 | 0.00 | 0.00 | 58 | 1012.4 |
| 20260502101551 | 8 | 321 | 6.4 | 9.7 | 0.00 | 0.00 | 0.00 | 57 | 1012.2 |
| 20260502071535 | 9 | 229 | 16.1 | 19.3 | 0.00 | 0.00 | 0.00 | 55 | 1012.4 |
| 20260502070037 | 8 | 215 | 12.9 | 17.7 | 0.00 | 0.00 | 0.00 | 56 | 1012.5 |
| 20260502064549 | 8 | 213 | 14.5 | 19.3 | 0.00 | 0.00 | 0.00 | 54 | 1012.6 |
| 20260502063035 | 9 | 225 | 11.3 | 16.1 | 0.00 | 0.00 | 0.00 | 52 | 1012.7 |
| 20260502061527 | 10 | 194 | 14.5 | 17.7 | 0.00 | 0.00 | 0.00 | 50 | 1012.6 |
| 20260502060025 | 10 | 210 | 14.5 | 17.7 | 0.00 | 0.00 | 0.00 | 48 | 1012.8 |
| 20260502054526 | 10 | 195 | 17.7 | 20.9 | 0.00 | 0.00 | 0.00 | 46 | 1012.7 |
| 20260502053022 | 10 | 207 | 17.7 | 20.9 | 0.00 | 0.00 | 0.00 | 47 | 1012.8 |
| 20260502051527 | 10 | 206 | 16.1 | 17.7 | 0.00 | 0.00 | 0.00 | 48 | 1012.9 |
| 20260502050024 | 10 | 199 | 16.1 | 19.3 | 0.00 | 0.00 | 0.00 | 47 | 1012.9 |
| 20260502044525 | 8 | 186 | 12.9 | 16.1 | 0.00 | 0.00 | 0.00 | 48 | 1013.0 |
| 20260502043118 | 9 | 182 | 12.9 | 16.1 | 0.00 | 0.00 | 0.00 | 46 | 1013.2 |
| 20260502041517 | 9 | 186 | 12.9 | 17.7 | 0.00 | 0.00 | 0.00 | 45 | 1013.4 |
| 20260502040029 | 8 | 175 | 14.5 | 17.7 | 0.00 | 0.00 | 0.00 | 45 | 1013.5 |
| 20260502034517 | 8 | 180 | 12.9 | 16.1 | 0.00 | 0.00 | 0.00 | 46 | 1013.5 |
| 20260502033017 | 8 | 181 | 12.9 | 14.5 | 0.00 | 0.00 | 0.00 | 45 | 1013.7 |
| 20260502031515 | 9 | 189 | 9.7 | 14.5 | 0.00 | 0.00 | 0.00 | 44 | 1013.8 |
| 20260502030015 | 10 | 184 | 12.9 | 17.7 | 0.00 | 0.00 | 0.00 | 41 | 1013.8 |
| 20260502024521 | 10 | 177 | 16.1 | 19.3 | 0.00 | 0.00 | 0.00 | 39 | 1013.8 |
| 20260502023014 | 11 | 177 | 17.7 | 19.3 | 0.00 | 0.00 | 0.00 | 39 | 1013.8 |
| 20260502021512 | 11 | 178 | 16.1 | 17.7 | 0.00 | 0.00 | 0.00 | 38 | 1013.9 |
| 20260502020011 | 12 | 180 | 14.5 | 17.7 | 0.00 | 0.00 | 0.00 | 37 | 1014.1 |
| 20260502014526 | 14 | 181 | 11.3 | 14.5 | 0.00 | 0.00 | 0.00 | 35 | 1014.3 |
| 20260502013007 | 15 | 180 | 9.7 | 12.9 | 0.00 | 0.00 | 0.00 | 30 | 1014.4 |
| 20260502011506 | 16 | 188 | 9.7 | 16.1 | 0.00 | 0.00 | 0.00 | 29 | 1014.6 |
| 20260502010004 | 17 | 229 | 14.5 | 19.3 | 0.00 | 0.00 | 0.00 | 27 | 1014.8 |
| 20260502004504 | 17 | 211 | 12.9 | 19.3 | 0.00 | 0.00 | 0.00 | 26 | 1014.9 |
| 20260502003002 | 17 | 223 | 12.9 | 24.1 | 0.00 | 0.00 | 0.00 | 25 | 1015.1 |
| 20260502001501 | 17 | 238 | 11.3 | 17.7 | 0.00 | 0.00 | 0.00 | 25 | 1015.3 |
| 20260502000002 | 17 | 254 | 14.5 | 27.4 | 0.00 | 0.00 | 0.00 | 25 | 1015.5 |
| 20260501234600 | 17 | 210 | 16.1 | 22.5 | 0.00 | 0.00 | 0.00 | 26 | 1015.5 |
| 20260501233058 | 17 | 205 | 14.5 | 24.1 | 0.00 | 0.00 | 0.00 | 24 | 1015.6 |
| 20260501231556 | 17 | 204 | 12.9 | 32.2 | 0.00 | 0.00 | 0.00 | 24 | 1015.7 |
| 20260501230056 | 17 | 196 | 14.5 | 22.5 | 0.00 | 0.00 | 0.00 | 23 | 1015.7 |
| 20260501224601 | 17 | 220 | 11.3 | 19.3 | 0.00 | 0.00 | 0.00 | 21 | 1015.8 |
| 20260501223054 | 18 | 186 | 17.7 | 30.6 | 0.00 | 0.00 | 0.00 | 24 | 1015.8 |
| 20260501221551 | 17 | 171 | 17.7 | 29.0 | 0.00 | 0.00 | 0.00 | 24 | 1016.1 |
| 20260501220051 | 17 | 261 | 6.4 | 32.2 | 0.00 | 0.00 | 0.00 | 22 | 1016.3 |
| 20260501214550 | 17 | 188 | 6.4 | 32.2 | 0.00 | 0.00 | 0.00 | 23 | 1016.4 |
| 20260501213052 | 16 | 219 | 9.7 | 29.0 | 0.00 | 0.00 | 0.00 | 24 | 1016.7 |
| 20260501211550 | 17 | 244 | 12.9 | 27.4 | 0.00 | 0.00 | 0.00 | 26 | 1016.8 |
| 20260501210053 | 16 | 162 | 14.5 | 25.7 | 0.00 | 0.00 | 0.00 | 24 | 1016.9 |
| 20260501204541 | 16 | 179 | 9.7 | 22.5 | 0.00 | 0.00 | 0.00 | 22 | 1017.2 |
| 20260501203041 | 16 | 215 | 12.9 | 27.4 | 0.00 | 0.00 | 0.00 | 24 | 1017.2 |
| 20260501201538 | 16 | 196 | 14.5 | 25.7 | 0.00 | 0.00 | 0.00 | 25 | 1017.4 |
| 20260501200035 | 15 | 221 | 16.1 | 24.1 | 0.00 | 0.00 | 0.00 | 24 | 1017.5 |